Time;durP1;ratioP1;P1;durP2;ratioP2;P2;SDS_P1;SDS_P2;PMS_P1;PMS_P2;Temp;Humidity;BMP_temperature;BMP_pressure;BME280_temperature;BME280_humidity;BME280_pressure;Samples;Min_cycle;Max_cycle;Signal;HPM_P1;HPM_P2
2022/05/26 00:00:13;;;;;;;4.57;1.25;;;11.40;99.90;;;;;;5080979;28;20048;-85
2022/05/26 00:03:00;;;;;;;2.47;1.10;;;11.30;99.90;;;;;;5082931;28;20083;-86
2022/05/26 00:05:51;;;;;;;3.78;1.45;;;11.30;99.90;;;;;;5047406;28;20060;-86
2022/05/26 00:08:44;;;;;;;2.78;1.10;;;11.30;99.90;;;;;;5080826;28;20045;-85
2022/05/26 00:11:40;;;;;;;2.20;1.23;;;11.30;99.90;;;;;;5081661;28;20049;-85
2022/05/26 00:14:30;;;;;;;2.63;1.17;;;11.10;99.90;;;;;;5068832;28;20076;-86
2022/05/26 00:17:20;;;;;;;1.85;1.17;;;11.10;99.90;;;;;;5077079;28;20397;-87
2022/05/26 00:20:11;;;;;;;2.38;1.40;;;11.00;99.90;;;;;;5076669;28;20098;-85
2022/05/26 00:23:06;;;;;;;4.35;1.50;;;11.00;99.90;;;;;;5060624;28;20048;-87
2022/05/26 00:25:55;;;;;;;3.53;1.35;;;11.10;99.90;;;;;;5050671;28;20130;-87
2022/05/26 00:28:42;;;;;;;1.52;1.20;;;11.20;99.90;;;;;;5074124;28;20082;-85
2022/05/26 00:31:30;;;;;;;2.15;1.25;;;11.40;99.90;;;;;;5078085;28;20134;-87
2022/05/26 00:34:22;;;;;;;2.03;1.30;;;11.40;99.90;;;;;;5056805;28;20055;-84
2022/05/26 00:37:10;;;;;;;2.13;1.30;;;11.50;99.90;;;;;;5058170;28;20099;-85
2022/05/26 00:39:57;;;;;;;4.05;1.40;;;11.50;99.90;;;;;;5077385;28;20157;-89
2022/05/26 00:42:45;;;;;;;3.25;1.60;;;11.50;99.90;;;;;;5075763;28;20052;-84
2022/05/26 00:45:44;;;;;;;4.15;1.35;;;11.50;99.90;;;;;;5059099;28;20046;-86
2022/05/26 00:48:50;;;;;;;3.13;1.30;;;11.50;99.90;;;;;;5085036;28;20055;-86
2022/05/26 00:51:38;;;;;;;3.08;1.20;;;11.50;99.90;;;;;;5057417;28;20141;-87
2022/05/26 00:54:26;;;;;;;2.83;1.48;;;11.40;99.90;;;;;;5073534;28;20079;-86
2022/05/26 00:57:32;;;;;;;3.72;1.40;;;11.20;99.90;;;;;;5053317;28;20075;-86
2022/05/26 01:00:23;;;;;;;1.45;1.20;;;11.20;99.90;;;;;;5056166;28;20520;-88
2022/05/26 01:03:27;;;;;;;3.30;1.30;;;11.10;99.90;;;;;;5066151;28;20134;-86
2022/05/26 01:06:28;;;;;;;1.77;1.20;;;11.10;99.90;;;;;;5056624;28;20060;-85
2022/05/26 01:09:15;;;;;;;2.45;1.45;;;11.00;99.90;;;;;;5068674;28;20052;-87
2022/05/26 01:12:05;;;;;;;3.75;1.20;;;10.90;99.90;;;;;;5081026;28;20041;-87
2022/05/26 01:15:08;;;;;;;6.00;1.02;;;10.90;99.90;;;;;;5073765;28;20048;-86
2022/05/26 01:18:08;;;;;;;2.78;1.50;;;10.80;99.90;;;;;;5069543;28;20056;-88
2022/05/26 01:21:21;;;;;;;2.65;1.52;;;10.80;99.90;;;;;;5074197;28;20045;-88
2022/05/26 01:24:41;;;;;;;1.80;1.13;;;10.80;99.90;;;;;;5075689;28;20488;-86
2022/05/26 01:27:44;;;;;;;2.10;0.98;;;10.90;99.90;;;;;;5071523;28;20044;-86
2022/05/26 01:31:02;;;;;;;2.25;1.10;;;10.90;99.90;;;;;;5088400;28;20076;-86
2022/05/26 01:34:06;;;;;;;3.15;1.20;;;10.90;99.90;;;;;;5075694;28;20076;-87
2022/05/26 01:37:12;;;;;;;3.33;1.20;;;11.00;99.90;;;;;;5057533;28;20048;-86
2022/05/26 01:40:37;;;;;;;3.45;1.15;;;11.00;99.90;;;;;;5088283;28;20341;-86
2022/05/26 01:43:41;;;;;;;1.80;0.98;;;11.00;99.90;;;;;;5074217;28;20056;-85
2022/05/26 01:46:40;;;;;;;4.85;1.20;;;11.00;99.90;;;;;;5083413;28;20413;-86
2022/05/26 01:49:32;;;;;;;4.10;1.38;;;11.00;99.90;;;;;;5080643;28;20090;-86
2022/05/26 01:52:32;;;;;;;3.07;1.20;;;10.90;99.90;;;;;;5059699;28;20120;-87
2022/05/26 01:55:31;;;;;;;4.70;1.48;;;10.90;99.90;;;;;;5087267;28;20163;-86
2022/05/26 01:58:34;;;;;;;2.70;1.20;;;10.80;99.90;;;;;;5074204;28;20123;-87
2022/05/26 02:01:28;;;;;;;2.38;1.17;;;10.80;99.90;;;;;;5061017;28;20132;-86
2022/05/26 02:04:29;;;;;;;1.67;1.50;;;10.80;99.90;;;;;;5073960;28;20887;-87
2022/05/26 02:07:32;;;;;;;2.25;1.10;;;10.80;99.90;;;;;;5059748;28;20084;-85
2022/05/26 02:10:28;;;;;;;3.25;1.10;;;10.80;99.90;;;;;;5076813;28;20381;-85
2022/05/26 02:13:20;;;;;;;7.50;1.30;;;10.90;99.90;;;;;;5066326;28;20450;-86
2022/05/26 02:16:18;;;;;;;1.52;1.17;;;11.00;99.90;;;;;;5043436;28;20049;-88
2022/05/26 02:19:05;;;;;;;3.35;0.90;;;11.10;99.90;;;;;;5061717;28;20488;-86
2022/05/26 02:22:13;;;;;;;1.25;0.98;;;11.20;99.90;;;;;;5063838;28;20097;-85
2022/05/26 02:25:16;;;;;;;3.17;1.00;;;11.30;99.90;;;;;;5080168;28;20114;-85
2022/05/26 02:28:04;;;;;;;;;;;11.40;99.90;;;;;;5080617;28;20350;-86
2022/05/26 02:30:55;;;;;;;2.33;1.10;;;11.30;99.90;;;;;;5058120;28;19924;-85
2022/05/26 02:33:48;;;;;;;4.45;1.25;;;11.30;99.90;;;;;;5072227;28;20397;-84
2022/05/26 02:36:37;;;;;;;1.52;1.10;;;11.20;99.90;;;;;;5055349;28;20109;-85
2022/05/26 02:39:26;;;;;;;4.45;1.10;;;11.20;99.90;;;;;;5084914;28;20459;-88
2022/05/26 02:42:14;;;;;;;5.10;1.00;;;11.20;99.90;;;;;;5084364;28;20314;-85
2022/05/26 02:45:01;;;;;;;4.00;0.90;;;11.30;99.90;;;;;;5062643;28;20119;-87
2022/05/26 02:48:06;;;;;;;3.30;1.65;;;11.30;99.90;;;;;;5092331;28;20541;-86
2022/05/26 02:51:10;;;;;;;4.03;1.20;;;11.20;99.90;;;;;;5090959;28;20580;-88
2022/05/26 02:54:03;;;;;;;7.78;1.10;;;11.30;99.90;;;;;;5044815;28;20137;-89
2022/05/26 02:56:51;;;;;;;;;;;11.30;99.90;;;;;;5052469;28;20135;-86
2022/05/26 03:00:17;;;;;;;1.58;0.98;;;11.30;99.90;;;;;;5065531;28;19921;-85
2022/05/26 03:03:07;;;;;;;3.53;1.20;;;11.30;99.90;;;;;;5066411;28;20056;-85
2022/05/26 03:06:06;;;;;;;2.25;0.85;;;11.20;99.90;;;;;;5062250;28;20053;-85
2022/05/26 03:08:55;;;;;;;2.25;1.10;;;11.20;99.90;;;;;;5078729;28;20056;-84
2022/05/26 03:11:52;;;;;;;2.85;1.00;;;11.20;99.90;;;;;;5077381;28;20097;-85
2022/05/26 03:14:39;;;;;;;3.17;1.08;;;11.10;99.90;;;;;;5068015;28;20179;-84
2022/05/26 03:17:27;;;;;;;2.25;1.20;;;11.10;99.90;;;;;;5063533;28;20145;-85
2022/05/26 03:20:14;;;;;;;1.67;1.13;;;11.10;99.90;;;;;;5072170;28;20381;-86
2022/05/26 03:23:04;;;;;;;2.35;1.20;;;11.00;99.90;;;;;;5073920;28;20041;-83
2022/05/26 03:25:58;;;;;;;6.43;1.30;;;10.90;99.90;;;;;;5086383;28;20409;-84
2022/05/26 03:28:47;;;;;;;4.43;1.23;;;10.80;99.90;;;;;;5061673;28;20029;-83
2022/05/26 03:31:34;;;;;;;3.17;1.00;;;10.70;99.90;;;;;;5090371;28;20044;-84
2022/05/26 03:40:46;;;;;;;2.70;1.30;;;10.50;99.90;;;;;;5068051;28;20104;-85
2022/05/26 03:43:39;;;;;;;4.57;1.13;;;10.50;99.90;;;;;;5059123;28;20032;-80
2022/05/26 03:46:26;;;;;;;;;;;10.40;99.90;;;;;;5078391;28;20045;-85
2022/05/26 03:49:14;;;;;;;1.30;1.13;;;10.40;99.90;;;;;;5086947;28;19943;-82
2022/05/26 03:52:03;;;;;;;1.75;1.20;;;10.40;99.90;;;;;;5099511;28;20567;-83
2022/05/26 03:54:50;;;;;;;1.80;1.40;;;10.40;99.90;;;;;;5082678;28;20102;-84
2022/05/26 03:57:39;;;;;;;4.03;1.60;;;10.50;99.90;;;;;;5077708;28;20424;-85
2022/05/26 04:00:26;;;;;;;4.38;1.50;;;10.60;99.90;;;;;;5076307;28;20048;-84
2022/05/26 04:03:14;;;;;;;2.88;1.10;;;10.50;99.90;;;;;;5086942;28;20083;-85
2022/05/26 04:06:02;;;;;;;3.35;1.25;;;10.60;99.90;;;;;;5052160;28;20066;-84
2022/05/26 04:08:49;;;;;;;2.10;1.10;;;10.60;99.90;;;;;;5065679;28;20048;-84
2022/05/26 04:11:39;;;;;;;1.80;1.30;;;10.60;99.90;;;;;;5081183;28;20106;-84
2022/05/26 04:14:28;;;;;;;3.17;1.30;;;10.70;99.90;;;;;;5070044;28;20049;-84
2022/05/26 04:17:17;;;;;;;1.40;1.10;;;10.70;99.90;;;;;;5082247;28;20093;-82
2022/05/26 04:20:09;;;;;;;1.42;1.05;;;10.80;99.90;;;;;;5057347;28;20123;-85
2022/05/26 04:22:56;;;;;;;3.78;1.30;;;10.80;99.90;;;;;;5072234;28;20106;-88
2022/05/26 04:25:43;;;;;;;3.33;1.25;;;10.80;99.90;;;;;;5060932;28;20154;-85
2022/05/26 04:28:31;;;;;;;2.30;1.23;;;10.90;99.90;;;;;;5059962;28;20070;-85
2022/05/26 04:31:18;;;;;;;2.25;1.33;;;11.00;99.90;;;;;;5072467;28;20107;-88
2022/05/26 04:34:06;;;;;;;2.22;1.02;;;11.00;99.90;;;;;;5090043;28;20056;-87
2022/05/26 04:36:53;;;;;;;5.68;1.38;;;11.10;99.90;;;;;;5073209;28;20040;-79
2022/05/26 04:39:43;;;;;;;1.95;1.02;;;11.20;99.90;;;;;;5104258;28;20186;-86
2022/05/26 04:42:31;;;;;;;2.92;1.13;;;11.20;99.90;;;;;;5084322;28;20079;-84
2022/05/26 04:45:20;;;;;;;1.70;1.17;;;11.30;99.90;;;;;;5081134;28;20044;-83
2022/05/26 04:48:08;;;;;;;2.55;1.27;;;11.30;99.90;;;;;;5085101;28;20144;-83
2022/05/26 04:50:57;;;;;;;0.90;0.80;;;11.40;99.90;;;;;;5066213;28;20064;-85
2022/05/26 04:53:47;;;;;;;1.00;1.00;;;11.40;99.90;;;;;;5077254;28;20076;-86
2022/05/26 04:56:35;;;;;;;1.80;1.30;;;11.50;99.90;;;;;;5082352;28;20048;-82
2022/05/26 04:59:22;;;;;;;2.13;1.27;;;11.60;99.90;;;;;;5102678;28;20151;-85
2022/05/26 05:02:11;;;;;;;4.50;1.30;;;11.70;99.90;;;;;;5053771;28;20139;-90
2022/05/26 05:05:02;;;;;;;2.60;1.13;;;11.80;99.90;;;;;;5083802;28;20063;-86
2022/05/26 05:07:52;;;;;;;5.30;0.90;;;11.90;99.90;;;;;;5050560;28;20040;-81
2022/05/26 05:10:39;;;;;;;1.42;1.02;;;12.00;99.90;;;;;;5083582;28;20057;-84
2022/05/26 05:13:27;;;;;;;2.83;1.10;;;12.00;99.90;;;;;;5079617;28;20059;-86
2022/05/26 05:16:30;;;;;;;1.80;1.10;;;12.10;99.90;;;;;;5074617;28;20114;-87
2022/05/26 05:19:18;;;;;;;2.17;0.95;;;12.10;99.90;;;;;;5061587;28;20608;-83
2022/05/26 05:22:11;;;;;;;3.58;1.05;;;12.20;99.90;;;;;;5078538;28;20086;-85
2022/05/26 05:25:18;;;;;;;2.15;1.00;;;12.30;99.90;;;;;;5087136;28;20136;-87
2022/05/26 05:28:16;;;;;;;2.33;0.90;;;12.40;99.90;;;;;;5071074;28;20060;-83
2022/05/26 05:31:09;;;;;;;3.17;1.33;;;12.50;99.90;;;;;;5085154;28;20055;-83
2022/05/26 05:34:04;;;;;;;2.97;0.90;;;12.50;99.90;;;;;;5063487;28;20076;-82
2022/05/26 05:36:52;;;;;;;2.53;0.85;;;12.60;99.90;;;;;;5066176;28;20118;-82
2022/05/26 05:39:39;;;;;;;2.00;0.88;;;12.70;99.90;;;;;;5076540;28;20146;-84
2022/05/26 05:42:29;;;;;;;2.92;1.00;;;12.70;99.90;;;;;;5065547;28;20059;-85
2022/05/26 05:45:16;;;;;;;2.95;1.10;;;12.80;99.90;;;;;;5069659;28;20052;-86
2022/05/26 05:48:03;;;;;;;3.72;1.08;;;12.90;99.90;;;;;;5080834;28;20054;-83
2022/05/26 05:50:51;;;;;;;1.65;1.15;;;13.00;99.90;;;;;;5096952;28;20070;-84
2022/05/26 05:53:39;;;;;;;3.08;1.00;;;13.20;99.90;;;;;;5104702;28;20055;-86
2022/05/26 05:56:27;;;;;;;2.47;1.02;;;13.40;99.90;;;;;;5110851;28;20048;-84
2022/05/26 05:59:15;;;;;;;5.25;1.00;;;13.50;99.90;;;;;;5110753;28;20546;-85
2022/05/26 06:02:03;;;;;;;2.17;0.80;;;13.60;99.90;;;;;;5095658;28;20079;-86
2022/05/26 06:05:13;;;;;;;1.90;0.90;;;13.80;99.90;;;;;;5086795;28;20095;-85
2022/05/26 06:08:03;;;;;;;2.47;1.00;;;13.90;99.90;;;;;;5102308;28;20108;-87
2022/05/26 06:10:51;;;;;;;0.55;0.55;;;14.00;99.90;;;;;;5098175;28;20051;-86
2022/05/26 06:13:38;;;;;;;0.80;0.75;;;14.10;99.90;;;;;;5094955;28;20076;-86
2022/05/26 06:16:28;;;;;;;1.52;0.82;;;14.20;99.90;;;;;;5092724;28;20032;-87
2022/05/26 06:19:16;;;;;;;2.47;0.75;;;14.50;99.90;;;;;;5081695;28;20048;-85
2022/05/26 06:22:16;;;;;;;1.83;0.80;;;14.70;99.90;;;;;;5080578;28;20052;-85
2022/05/26 06:25:04;;;;;;;2.00;0.80;;;14.70;99.90;;;;;;5098022;28;20102;-81
2022/05/26 06:30:57;;;;;;;1.70;0.90;;;14.90;99.90;;;;;;5092343;28;20044;-85
2022/05/26 06:39:56;;;;;;;1.85;0.70;;;16.10;99.90;;;;;;5091118;28;20085;-85
2022/05/26 06:42:47;;;;;;;2.85;0.73;;;16.00;99.90;;;;;;5106205;28;20135;-87
2022/05/26 06:45:38;;;;;;;1.67;0.93;;;15.90;99.90;;;;;;5122288;28;20044;-86
2022/05/26 06:48:26;;;;;;;1.02;0.70;;;15.80;99.90;;;;;;5086759;28;20046;-82
2022/05/26 06:51:16;;;;;;;1.65;0.63;;;15.80;99.90;;;;;;5110440;28;20071;-85
2022/05/26 06:54:05;;;;;;;2.08;0.90;;;16.10;99.90;;;;;;5076015;28;20394;-84
2022/05/26 06:56:53;;;;;;;4.90;0.73;;;16.30;99.90;;;;;;5101075;28;20083;-89
2022/05/26 06:59:40;;;;;;;4.13;0.80;;;16.40;99.90;;;;;;5078044;28;20086;-84
2022/05/26 07:02:29;;;;;;;2.25;1.02;;;16.50;99.90;;;;;;5079635;28;20044;-86
2022/05/26 07:05:16;;;;;;;0.80;0.80;;;16.50;99.90;;;;;;5099229;28;20058;-84
2022/05/26 07:08:04;;;;;;;2.35;1.10;;;16.40;99.90;;;;;;5073658;28;20645;-88
2022/05/26 07:10:53;;;;;;;2.90;0.70;;;16.70;99.90;;;;;;5076532;28;20109;-88
2022/05/26 07:13:43;;;;;;;2.67;0.70;;;16.80;99.90;;;;;;5090676;28;20052;-86
2022/05/26 07:16:35;;;;;;;3.13;0.75;;;17.00;99.40;;;;;;5090303;28;20048;-87
2022/05/26 07:19:23;;;;;;;0.90;0.52;;;16.90;98.30;;;;;;5088597;28;20537;-86
2022/05/26 07:22:10;;;;;;;4.00;0.70;;;16.60;99.50;;;;;;5080089;28;20098;-85
2022/05/26 07:24:58;;;;;;;2.10;0.60;;;16.70;99.60;;;;;;5109011;28;20058;-84
2022/05/26 07:27:45;;;;;;;2.60;1.00;;;16.70;98.60;;;;;;5095623;28;20055;-84
2022/05/26 07:30:32;;;;;;;4.63;0.90;;;16.80;98.20;;;;;;5090373;28;20044;-86
2022/05/26 07:33:20;;;;;;;1.38;0.70;;;16.70;98.30;;;;;;5101442;28;20042;-86
2022/05/26 07:41:16;;;;;;;1.98;0.65;;;16.60;98.40;;;;;;5073588;28;20044;-88
2022/05/26 07:42:40;;;;;;;2.83;0.73;;;16.80;97.90;;;;;;5027449;28;20109;-84
2022/05/26 07:45:28;;;;;;;3.88;0.90;;;17.20;97.20;;;;;;5083515;28;20058;-85
2022/05/26 07:48:15;;;;;;;2.60;0.60;;;17.60;96.40;;;;;;5079455;28;20144;-84
2022/05/26 07:51:03;;;;;;;2.05;0.80;;;17.80;95.20;;;;;;5064523;28;20041;-84
2022/05/26 07:53:50;;;;;;;1.77;0.68;;;17.90;94.10;;;;;;5074364;28;20468;-87
2022/05/26 07:56:38;;;;;;;3.88;0.85;;;17.70;93.60;;;;;;5081216;28;20044;-87
2022/05/26 07:59:26;;;;;;;1.27;0.85;;;17.70;93.10;;;;;;5072402;28;20040;-84
2022/05/26 08:02:14;;;;;;;4.35;1.20;;;17.90;93.00;;;;;;5074922;28;20063;-83
2022/05/26 08:05:01;;;;;;;3.50;0.75;;;18.40;91.90;;;;;;5075685;28;20397;-85
2022/05/26 08:07:48;;;;;;;1.23;0.50;;;18.70;90.90;;;;;;5062941;28;20044;-85
2022/05/26 08:10:39;;;;;;;1.50;0.60;;;18.90;90.40;;;;;;5071392;28;20050;-84
2022/05/26 08:13:27;;;;;;;1.80;0.60;;;18.90;90.40;;;;;;5054739;28;20052;-85
2022/05/26 08:16:14;;;;;;;4.18;0.70;;;18.60;90.40;;;;;;5074006;28;20044;-87
2022/05/26 08:19:02;;;;;;;1.25;0.70;;;18.70;90.30;;;;;;5060747;28;20182;-86
2022/05/26 08:21:49;;;;;;;3.25;0.75;;;19.00;87.70;;;;;;5089857;28;20147;-86
2022/05/26 08:24:39;;;;;;;1.27;0.80;;;19.20;85.90;;;;;;5081130;28;20040;-86
2022/05/26 08:27:29;;;;;;;4.40;0.80;;;19.20;86.30;;;;;;5038433;28;20126;-86
2022/05/26 08:30:16;;;;;;;1.52;0.70;;;19.10;85.30;;;;;;5077587;28;20115;-85
2022/05/26 08:33:03;;;;;;;1.15;0.52;;;19.20;84.70;;;;;;5090609;28;20047;-85
2022/05/26 08:36:04;;;;;;;1.20;0.45;;;19.10;85.60;;;;;;5073392;28;20047;-85
2022/05/26 08:38:52;;;;;;;3.17;0.70;;;18.70;86.10;;;;;;5060282;28;20040;-82
2022/05/26 08:41:46;;;;;;;1.60;0.70;;;18.50;86.40;;;;;;5057337;28;20048;-86
2022/05/26 08:44:38;;;;;;;2.17;0.80;;;18.30;86.60;;;;;;5087343;28;20052;-83
2022/05/26 08:47:44;;;;;;;1.95;0.93;;;17.60;89.60;;;;;;5059121;28;20106;-83
2022/05/26 08:50:34;;;;;;;1.27;0.57;;;18.00;91.20;;;;;;5059510;28;20473;-82
2022/05/26 08:53:31;;;;;;;1.60;0.70;;;18.10;89.70;;;;;;5069647;28;20075;-86
2022/05/26 08:56:23;;;;;;;4.38;0.60;;;18.10;89.30;;;;;;5067945;28;20079;-84
2022/05/26 08:59:14;;;;;;;3.97;0.80;;;18.10;90.20;;;;;;5060917;28;20528;-86
2022/05/26 09:02:03;;;;;;;2.08;0.80;;;18.00;90.60;;;;;;5064812;28;20346;-85
2022/05/26 09:04:51;;;;;;;2.05;0.70;;;18.40;89.60;;;;;;5058546;28;20398;-87
2022/05/26 09:14:33;;;;;;;1.40;0.60;;;18.40;88.20;;;;;;5065057;28;20059;-85
2022/05/26 09:17:22;;;;;;;1.92;0.47;;;19.20;84.50;;;;;;5075735;28;20128;-86
2022/05/26 09:20:27;;;;;;;1.73;0.50;;;19.10;82.80;;;;;;5073405;28;20048;-85
2022/05/26 09:23:28;;;;;;;0.73;0.60;;;19.50;82.90;;;;;;5078242;28;20109;-86
2022/05/26 09:26:19;;;;;;;3.47;0.70;;;20.10;78.50;;;;;;5093513;28;20153;-83
2022/05/26 09:29:08;;;;;;;1.65;0.60;;;20.10;78.30;;;;;;5077240;28;20052;-86
2022/05/26 09:32:01;;;;;;;1.33;0.60;;;20.20;78.80;;;;;;5063504;28;20457;-84
2022/05/26 09:35:30;;;;;;;1.17;0.50;;;19.90;79.00;;;;;;5068760;28;20056;-85
2022/05/26 09:38:19;;;;;;;1.85;0.55;;;19.40;81.90;;;;;;5064591;28;20123;-84
2022/05/26 09:41:07;;;;;;;1.30;0.63;;;18.40;83.90;;;;;;5098006;28;20041;-87
2022/05/26 09:43:59;;;;;;;4.10;0.73;;;18.20;87.10;;;;;;5069876;28;20044;-86
2022/05/26 09:46:54;;;;;;;1.67;0.80;;;18.40;86.20;;;;;;5066552;28;20134;-81
2022/05/26 09:49:41;;;;;;;1.38;0.60;;;18.30;86.20;;;;;;5068802;28;20331;-82
2022/05/26 09:52:49;;;;;;;2.90;0.70;;;18.00;89.20;;;;;;5067233;28;20063;-86
2022/05/26 09:55:47;;;;;;;2.20;0.70;;;17.60;90.30;;;;;;5048430;28;20056;-83
2022/05/26 09:58:45;;;;;;;2.70;1.08;;;17.50;91.20;;;;;;5063217;28;20085;-83
2022/05/26 10:01:43;;;;;;;2.53;0.70;;;17.40;91.30;;;;;;5061841;28;20059;-85
2022/05/26 10:04:54;;;;;;;0.85;0.40;;;17.60;90.90;;;;;;5050893;28;20060;-85
2022/05/26 10:07:49;;;;;;;0.90;0.50;;;17.80;90.70;;;;;;5073096;28;20049;-84
2022/05/26 10:10:41;;;;;;;;;;;17.90;91.40;;;;;;5090727;28;20071;-83
2022/05/26 10:14:05;;;;;;;1.65;0.60;;;18.00;90.50;;;;;;5085542;28;20306;-88
2022/05/26 10:17:19;;;;;;;1.42;0.52;;;17.90;91.10;;;;;;5085791;28;20096;-82
2022/05/26 10:20:26;;;;;;;2.72;0.70;;;18.00;90.10;;;;;;5089125;28;20071;-85
2022/05/26 10:23:34;;;;;;;1.67;0.50;;;18.30;89.70;;;;;;5089759;28;20041;-84
2022/05/26 10:26:57;;;;;;;1.38;0.60;;;18.20;87.80;;;;;;5081407;28;20060;-81
2022/05/26 10:30:22;;;;;;;1.92;0.60;;;17.90;90.30;;;;;;5080609;28;20458;-85
2022/05/26 10:33:21;;;;;;;1.30;0.50;;;17.90;89.80;;;;;;5081926;28;20067;-85
2022/05/26 10:36:35;;;;;;;1.27;0.60;;;17.70;90.20;;;;;;5077207;28;20496;-86
2022/05/26 10:39:53;;;;;;;2.25;0.90;;;17.70;89.50;;;;;;5062135;28;20080;-85
2022/05/26 10:42:56;;;;;;;2.72;0.60;;;17.50;90.70;;;;;;5074871;28;20045;-88
2022/05/26 10:45:48;;;;;;;1.80;0.95;;;17.40;91.30;;;;;;5057877;28;20060;-87
2022/05/26 10:48:44;;;;;;;3.00;0.85;;;17.60;91.60;;;;;;5053098;28;20041;-89
2022/05/26 10:51:43;;;;;;;2.35;0.77;;;17.80;90.70;;;;;;5060352;28;20075;-85
2022/05/26 10:55:04;;;;;;;2.05;0.73;;;18.00;90.60;;;;;;5071789;28;20088;-88
2022/05/26 10:58:20;;;;;;;1.92;0.90;;;17.90;90.30;;;;;;5075555;28;20067;-87
2022/05/26 11:01:52;;;;;;;1.75;0.70;;;18.00;90.20;;;;;;5063229;28;20067;-84
2022/05/26 11:05:05;;;;;;;4.22;0.63;;;17.90;90.60;;;;;;4992006;28;20042;-87
2022/05/26 11:08:07;;;;;;;2.75;1.20;;;17.80;90.90;;;;;;4989604;28;20057;-84
2022/05/26 11:11:35;;;;;;;2.10;0.80;;;17.70;90.90;;;;;;5067469;28;20047;-84
2022/05/26 11:18:24;;;;;;;1.90;0.80;;;17.50;91.60;;;;;;5066896;28;20167;-84
2022/05/26 11:21:17;;;;;;;2.22;1.40;;;17.40;92.20;;;;;;5068810;28;20692;-88
2022/05/26 11:24:09;;;;;;;3.55;1.25;;;17.50;91.50;;;;;;5084444;28;20097;-89
2022/05/26 11:27:12;;;;;;;2.65;0.88;;;17.60;91.10;;;;;;5062809;28;20109;-84
2022/05/26 11:36:48;;;;;;;1.45;0.80;;;17.30;91.60;;;;;;5090713;28;20080;-85
2022/05/26 11:39:42;;;;;;;1.30;0.68;;;17.30;91.60;;;;;;5079438;28;20047;-82
2022/05/26 11:42:39;;;;;;;2.83;0.90;;;17.40;91.60;;;;;;5100531;28;20110;-87
2022/05/26 11:45:33;;;;;;;2.30;0.88;;;17.60;91.50;;;;;;5106168;28;20062;-83
2022/05/26 11:48:30;;;;;;;1.42;0.95;;;17.80;91.60;;;;;;5095472;28;20059;-85
2022/05/26 11:51:35;;;;;;;1.55;0.52;;;18.10;90.90;;;;;;5099635;28;20052;-84
2022/05/26 11:54:54;;;;;;;3.20;1.15;;;18.50;88.10;;;;;;5064862;28;20121;-80
2022/05/26 11:57:41;;;;;;;1.65;0.82;;;18.50;87.80;;;;;;5061427;28;20083;-84
2022/05/26 12:00:34;;;;;;;3.95;0.80;;;18.40;87.70;;;;;;5075447;28;20044;-85
2022/05/26 12:03:24;;;;;;;2.58;0.95;;;18.10;88.60;;;;;;5060661;28;20437;-85
2022/05/26 12:06:14;;;;;;;1.30;0.80;;;18.00;90.00;;;;;;5075846;28;20044;-85
2022/05/26 12:09:18;;;;;;;2.25;0.80;;;18.10;90.00;;;;;;5079247;28;20059;-85
2022/05/26 12:12:08;;;;;;;2.65;1.00;;;18.00;90.20;;;;;;5079655;28;20139;-85
2022/05/26 12:15:06;;;;;;;2.42;0.73;;;18.00;91.00;;;;;;5070654;28;20041;-84
2022/05/26 12:17:57;;;;;;;4.10;0.95;;;18.20;90.20;;;;;;5065681;28;20074;-85
2022/05/26 12:20:46;;;;;;;1.50;0.80;;;18.60;90.10;;;;;;5069429;28;20071;-84
2022/05/26 12:23:37;;;;;;;0.95;0.60;;;19.20;88.40;;;;;;5091389;28;20059;-85
2022/05/26 12:26:28;;;;;;;2.53;0.75;;;20.00;85.50;;;;;;5088395;28;20566;-84
2022/05/26 12:29:43;;;;;;;1.73;0.80;;;20.70;79.70;;;;;;5075124;28;20076;-83
2022/05/26 12:32:38;;;;;;;1.15;0.55;;;21.50;78.60;;;;;;5065352;28;20056;-85
2022/05/26 12:35:45;;;;;;;3.22;0.93;;;21.50;77.40;;;;;;5062656;28;20059;-84
2022/05/26 12:38:53;;;;;;;2.08;0.98;;;21.60;76.50;;;;;;5076900;28;20048;-83
2022/05/26 12:42:04;;;;;;;1.52;0.75;;;21.30;76.10;;;;;;5073349;28;20049;-85
2022/05/26 12:45:02;;;;;;;2.25;0.80;;;20.90;77.70;;;;;;5066690;28;20068;-86
2022/05/26 12:48:17;;;;;;;0.98;0.60;;;20.90;79.00;;;;;;5053604;28;20300;-83
2022/05/26 12:51:10;;;;;;;0.98;0.70;;;21.60;74.30;;;;;;5073594;28;20102;-84
2022/05/26 12:54:00;;;;;;;2.10;0.82;;;22.80;70.10;;;;;;5072758;28;20049;-83
2022/05/26 12:56:58;;;;;;;3.53;0.80;;;22.40;66.50;;;;;;5082911;28;20052;-86
2022/05/26 12:59:45;;;;;;;3.58;0.88;;;21.70;70.40;;;;;;5053032;28;20041;-86
2022/05/26 13:02:33;;;;;;;1.85;0.90;;;20.60;72.00;;;;;;5069641;28;20142;-86
2022/05/26 13:05:21;;;;;;;2.10;0.75;;;20.50;72.80;;;;;;5059311;28;20091;-86
2022/05/26 13:08:17;;;;;;;1.65;0.80;;;21.00;74.50;;;;;;5075297;28;20431;-83
2022/05/26 13:11:11;;;;;;;1.20;0.82;;;21.10;71.20;;;;;;5062115;28;20064;-86
2022/05/26 13:14:07;;;;;;;2.10;0.73;;;21.00;72.60;;;;;;5069142;28;20073;-85
2022/05/26 13:17:04;;;;;;;3.47;0.90;;;20.50;73.80;;;;;;5070662;28;20044;-86
2022/05/26 13:19:59;;;;;;;1.90;0.70;;;20.20;77.10;;;;;;5078638;28;20185;-84
2022/05/26 13:22:49;;;;;;;1.33;0.70;;;20.20;75.80;;;;;;5094967;28;20071;-85
2022/05/26 13:25:38;;;;;;;2.20;0.80;;;20.00;76.40;;;;;;5054339;28;20041;-87
2022/05/26 13:28:32;;;;;;;2.97;0.88;;;19.80;78.50;;;;;;5058709;28;20043;-83
2022/05/26 13:34:53;;;;;;;2.83;0.60;;;20.10;78.50;;;;;;5065704;28;20131;-85
2022/05/26 13:37:42;;;;;;;3.97;1.33;;;20.20;76.60;;;;;;5069829;28;20122;-85
2022/05/26 13:40:30;;;;;;;3.13;0.80;;;20.10;78.90;;;;;;5094596;28;20066;-85
2022/05/26 13:43:21;;;;;;;3.38;0.98;;;20.00;77.20;;;;;;5081193;28;20040;-84
2022/05/26 13:46:09;;;;;;;8.32;1.00;;;19.90;77.60;;;;;;5076894;28;20078;-85
2022/05/26 13:49:15;;;;;;;1.70;0.70;;;19.70;78.90;;;;;;5063031;28;20079;-86
2022/05/26 13:52:14;;;;;;;2.88;0.77;;;19.50;78.50;;;;;;5074657;28;20079;-86
2022/05/26 13:55:20;;;;;;;3.38;0.93;;;19.40;80.20;;;;;;5061592;28;20052;-84
2022/05/26 13:58:10;;;;;;;2.83;0.80;;;19.80;79.60;;;;;;5060760;28;20053;-87
2022/05/26 14:01:05;;;;;;;5.55;1.23;;;20.10;78.60;;;;;;5039945;28;20052;-84
2022/05/26 14:03:59;;;;;;;2.53;0.88;;;20.10;80.80;;;;;;5078907;28;20649;-87
2022/05/26 14:06:46;;;;;;;1.73;0.77;;;20.10;79.80;;;;;;5072228;28;20045;-86
2022/05/26 14:09:34;;;;;;;4.10;0.77;;;20.20;78.40;;;;;;5070271;28;20044;-83
2022/05/26 14:12:24;;;;;;;3.38;0.70;;;20.00;79.30;;;;;;5071572;28;20200;-84
2022/05/26 14:15:12;;;;;;;2.55;0.80;;;20.00;78.60;;;;;;5071887;28;20048;-87
2022/05/26 14:17:59;;;;;;;1.77;0.75;;;19.80;77.60;;;;;;5065226;28;20110;-88
2022/05/26 14:21:02;;;;;;;1.58;0.70;;;19.60;79.00;;;;;;5067947;28;20052;-86
2022/05/26 14:24:27;;;;;;;4.10;0.93;;;19.20;79.20;;;;;;5080576;28;20093;-81
2022/05/26 14:27:19;;;;;;;1.92;0.88;;;19.20;79.50;;;;;;5067825;28;20041;-80
2022/05/26 14:30:30;;;;;;;3.85;0.80;;;19.20;82.50;;;;;;5071091;28;20571;-87
2022/05/26 14:33:29;;;;;;;1.60;0.60;;;19.10;81.50;;;;;;5070318;28;20353;-84
2022/05/26 14:36:16;;;;;;;2.40;0.90;;;19.00;82.80;;;;;;5046987;28;20076;-83
2022/05/26 14:39:04;;;;;;;2.63;0.90;;;19.20;82.90;;;;;;5065952;28;20145;-85
2022/05/26 14:41:53;;;;;;;2.72;0.90;;;19.40;82.10;;;;;;5070177;28;20110;-84
2022/05/26 14:44:50;;;;;;;2.22;0.63;;;19.80;81.30;;;;;;5071688;28;20051;-84
2022/05/26 14:47:38;;;;;;;4.80;0.85;;;20.00;79.50;;;;;;5092670;28;20048;-83
2022/05/26 14:50:26;;;;;;;0.93;0.70;;;20.30;78.70;;;;;;5068751;28;20048;-86
2022/05/26 14:53:15;;;;;;;1.58;0.70;;;21.10;76.40;;;;;;5080638;28;20049;-85
2022/05/26 14:56:06;;;;;;;3.47;0.85;;;21.70;73.20;;;;;;5068491;28;20424;-83
2022/05/26 14:58:53;;;;;;;2.40;0.60;;;23.50;69.80;;;;;;5071462;28;20102;-82
2022/05/26 15:01:41;;;;;;;2.90;1.05;;;24.60;63.80;;;;;;5062257;28;20037;-84
2022/05/26 15:04:28;;;;;;;3.03;0.70;;;24.60;61.60;;;;;;5058382;28;20055;-84
2022/05/26 15:07:18;;;;;;;2.78;0.75;;;24.90;62.00;;;;;;5065309;28;20040;-82
2022/05/26 15:10:07;;;;;;;1.85;0.57;;;25.60;60.90;;;;;;5068685;28;20044;-85
2022/05/26 15:12:54;;;;;;;2.53;0.90;;;26.10;57.50;;;;;;5069996;28;20052;-83
2022/05/26 15:15:42;;;;;;;3.42;0.73;;;23.50;61.30;;;;;;5071662;28;20135;-82
2022/05/26 15:18:29;;;;;;;4.43;0.63;;;21.50;67.50;;;;;;5093902;28;20055;-82
2022/05/26 15:21:19;;;;;;;1.92;0.80;;;20.70;71.50;;;;;;5076357;28;20095;-84
2022/05/26 15:24:06;;;;;;;2.13;1.13;;;20.00;74.10;;;;;;5087993;28;20485;-83
2022/05/26 15:26:57;;;;;;;2.97;0.60;;;19.70;77.20;;;;;;5061585;28;20040;-84
2022/05/26 15:29:50;;;;;;;4.68;0.80;;;19.80;77.50;;;;;;5077334;28;20051;-83
2022/05/26 15:32:41;;;;;;;1.98;0.75;;;21.50;72.70;;;;;;5082011;28;20045;-83
2022/05/26 15:35:29;;;;;;;3.97;0.75;;;23.20;66.40;;;;;;5062321;28;20052;-84
2022/05/26 15:38:16;;;;;;;3.33;1.00;;;23.90;63.30;;;;;;5086222;28;20409;-85
2022/05/26 15:41:06;;;;;;;2.28;0.70;;;24.20;63.90;;;;;;5077207;28;20060;-84
2022/05/26 15:43:53;;;;;;;3.70;0.93;;;25.00;60.40;;;;;;5077989;28;20045;-83
2022/05/26 15:46:47;;;;;;;2.00;0.60;;;25.70;57.10;;;;;;5062447;28;20041;-84